Time;durP1;ratioP1;P1;durP2;ratioP2;P2;SDS_P1;SDS_P2;PMS_P1;PMS_P2;Temp;Humidity;BMP_temperature;BMP_pressure;BME280_temperature;BME280_humidity;BME280_pressure;Samples;Min_cycle;Max_cycle;Signal;HPM_P1;HPM_P2
2021/12/14 15:53:29;;;;;;;21.00;8.43;;;6.30;99.70;;;;;;5287707;23;20522;-63
2021/12/14 15:55:59;;;;;;;22.00;8.60;;;6.20;99.70;;;;;;4928226;29;20465;-61
2021/12/14 15:58:29;;;;;;;20.77;9.10;;;6.20;99.70;;;;;;4930852;29;20455;-65
2021/12/14 16:00:58;;;;;;;23.23;9.27;;;6.30;99.70;;;;;;4928395;28;20457;-60
2021/12/14 16:03:25;;;;;;;27.10;10.30;;;6.30;99.70;;;;;;4912860;29;20564;-63
2021/12/14 16:05:54;;;;;;;23.07;9.70;;;6.20;99.70;;;;;;4909486;29;20964;-63
2021/12/14 16:08:24;;;;;;;24.43;10.80;;;6.20;99.70;;;;;;4913665;29;20474;-66
2021/12/14 16:10:54;;;;;;;27.30;10.13;;;6.20;99.70;;;;;;4931221;29;20956;-61
2021/12/14 16:16:09;;;;;;;23.70;9.23;;;6.40;99.70;;;;;;4913001;29;20430;-63
2021/12/14 16:18:36;;;;;;;19.23;7.57;;;6.40;99.70;;;;;;4923708;29;20445;-62
2021/12/14 16:21:06;;;;;;;19.20;7.97;;;6.40;99.70;;;;;;4920414;29;20466;-61
2021/12/14 16:23:37;;;;;;;19.10;7.93;;;6.30;99.70;;;;;;4920441;29;20496;-60
2021/12/14 16:26:06;;;;;;;16.70;6.80;;;6.30;99.70;;;;;;4913482;29;20556;-61
2021/12/14 16:28:36;;;;;;;15.57;7.20;;;6.30;99.70;;;;;;4919226;29;20510;-63
2021/12/14 16:31:06;;;;;;;17.43;7.20;;;6.30;99.70;;;;;;4926178;29;20811;-63
2021/12/14 16:33:35;;;;;;;14.57;6.37;;;6.40;99.70;;;;;;4917193;29;20512;-62
2021/12/14 16:36:07;;;;;;;17.40;7.40;;;6.30;99.70;;;;;;4924424;29;20940;-65
2021/12/14 16:38:37;;;;;;;15.43;7.07;;;6.20;99.70;;;;;;4916474;29;20470;-61
2021/12/14 16:41:08;;;;;;;18.83;8.43;;;6.20;99.70;;;;;;4912946;29;20541;-62
2021/12/14 16:43:37;;;;;;;21.10;9.00;;;6.20;99.70;;;;;;4923062;29;21055;-63
2021/12/14 16:46:06;;;;;;;20.77;8.90;;;6.10;99.70;;;;;;4910256;29;20470;-63
2021/12/14 16:48:36;;;;;;;20.77;8.90;;;6.10;99.70;;;;;;4913510;29;20931;-60
2021/12/14 16:51:07;;;;;;;24.93;9.90;;;6.20;99.70;;;;;;4925500;29;20461;-63
2021/12/14 16:53:43;;;;;;;24.27;10.23;;;6.10;99.70;;;;;;4929984;29;20482;-62
2021/12/14 16:56:11;;;;;;;24.53;9.63;;;6.10;99.70;;;;;;4907331;29;20841;-62
2021/12/14 16:58:38;;;;;;;27.23;11.30;;;6.10;99.70;;;;;;4917020;29;20952;-62
2021/12/14 17:01:10;;;;;;;28.67;11.10;;;6.20;99.70;;;;;;4916238;29;20465;-59
2021/12/14 17:03:38;;;;;;;30.70;11.80;;;6.10;99.70;;;;;;4919228;29;20499;-60
2021/12/14 17:06:09;;;;;;;30.90;12.97;;;6.00;99.70;;;;;;4916500;29;20825;-61
2021/12/14 17:08:40;;;;;;;26.40;10.87;;;6.10;99.70;;;;;;4918342;29;20470;-64
2021/12/14 17:11:13;;;;;;;32.60;13.57;;;6.00;99.70;;;;;;4923296;29;20462;-62
2021/12/14 17:13:48;;;;;;;36.83;13.80;;;6.00;99.70;;;;;;4932523;29;20476;-59
2021/12/14 17:16:21;;;;;;;38.20;13.00;;;6.00;99.70;;;;;;4907202;29;20485;-57
2021/12/14 17:18:50;;;;;;;30.43;12.50;;;6.00;99.70;;;;;;4920896;29;20454;-58
2021/12/14 17:21:43;;;;;;;52.77;18.20;;;6.00;99.70;;;;;;4918775;29;20454;-59
2021/12/14 17:24:15;;;;;;;56.30;19.10;;;6.00;99.70;;;;;;4908521;29;20497;-65
2021/12/14 17:26:46;;;;;;;33.27;13.50;;;6.00;99.70;;;;;;4920078;29;21183;-61
2021/12/14 17:29:15;;;;;;;37.73;13.80;;;5.90;99.70;;;;;;4917425;29;20472;-60
2021/12/14 17:31:46;;;;;;;31.73;13.23;;;6.00;99.70;;;;;;4923912;29;20450;-59
2021/12/14 17:34:16;;;;;;;33.17;13.03;;;5.90;99.70;;;;;;4920095;29;20460;-61
2021/12/14 17:36:45;;;;;;;34.57;13.20;;;5.80;99.70;;;;;;4924184;29;20833;-60
2021/12/14 17:39:16;;;;;;;29.80;12.57;;;5.80;99.70;;;;;;4927019;29;20461;-61
2021/12/14 17:41:44;;;;;;;31.23;13.13;;;5.80;99.70;;;;;;4919265;29;20478;-63
2021/12/14 17:44:15;;;;;;;36.70;14.77;;;5.80;99.70;;;;;;4918106;29;20481;-60
2021/12/14 17:46:46;;;;;;;31.70;12.30;;;5.80;99.70;;;;;;4920209;29;20541;-62
2021/12/14 17:49:15;;;;;;;34.50;13.90;;;5.80;99.70;;;;;;4919107;29;20454;-62
2021/12/14 17:51:59;;;;;;;36.80;14.10;;;5.80;99.70;;;;;;4918047;29;20458;-61
2021/12/14 17:54:32;;;;;;;34.60;13.13;;;5.80;99.70;;;;;;4919853;29;20451;-63
2021/12/14 17:57:20;;;;;;;30.43;12.90;;;6.00;99.70;;;;;;4918911;29;20453;-64
2021/12/14 17:59:50;;;;;;;32.30;13.20;;;6.00;99.70;;;;;;4907963;29;20446;-64
2021/12/14 18:02:20;;;;;;;44.03;16.37;;;5.90;99.70;;;;;;4915100;29;20549;-63
2021/12/14 18:04:49;;;;;;;36.50;14.90;;;5.80;99.70;;;;;;4916151;29;20481;-63
2021/12/14 18:07:16;;;;;;;41.23;16.10;;;6.10;99.70;;;;;;4916607;29;20453;-62
2021/12/14 18:09:48;;;;;;;43.03;15.60;;;6.20;99.70;;;;;;4914630;29;20965;-60
2021/12/14 18:12:16;;;;;;;32.37;13.90;;;6.10;99.70;;;;;;4920975;29;20976;-63
2021/12/14 18:14:48;;;;;;;31.80;13.40;;;6.00;99.70;;;;;;4924356;29;20462;-59
2021/12/14 18:17:27;;;;;;;42.93;16.50;;;6.10;99.70;;;;;;4916185;29;20976;-65
2021/12/14 18:19:55;;;;;;;38.93;17.07;;;6.10;99.70;;;;;;4916807;29;20468;-67
2021/12/14 18:22:33;;;;;;;45.73;18.97;;;6.00;99.70;;;;;;4920440;29;20496;-65
2021/12/14 18:25:04;;;;;;;38.20;14.57;;;6.00;99.70;;;;;;4910222;29;20485;-61
2021/12/14 18:27:34;;;;;;;33.10;13.73;;;5.90;99.70;;;;;;4921792;29;20452;-59
2021/12/14 18:30:04;;;;;;;32.93;13.63;;;5.90;99.70;;;;;;4916610;29;20478;-66
2021/12/14 18:32:33;;;;;;;33.33;13.77;;;5.80;99.70;;;;;;4919696;29;20466;-62
2021/12/14 18:35:04;;;;;;;35.33;14.50;;;5.80;99.70;;;;;;4924560;29;20473;-59
2021/12/14 18:37:32;;;;;;;31.80;13.27;;;5.80;99.70;;;;;;4927440;29;20484;-60
2021/12/14 18:40:06;;;;;;;31.27;12.80;;;5.80;99.70;;;;;;4921341;29;20460;-62
2021/12/14 18:42:36;;;;;;;28.90;12.30;;;5.80;99.70;;;;;;4925410;29;20523;-61
2021/12/14 18:45:08;;;;;;;34.63;13.90;;;5.80;99.70;;;;;;4925832;29;21065;-60
2021/12/14 18:50:29;;;;;;;29.73;12.70;;;5.80;99.70;;;;;;4921378;29;20574;-62
2021/12/14 18:52:59;;;;;;;31.30;13.30;;;5.80;99.70;;;;;;4918454;29;20856;-63
2021/12/14 18:55:31;;;;;;;32.37;13.60;;;5.90;99.70;;;;;;4925500;29;20445;-63
2021/12/14 18:58:04;;;;;;;35.27;15.10;;;5.90;99.70;;;;;;4924687;29;20482;-60
2021/12/14 19:00:33;;;;;;;33.40;13.60;;;5.90;99.70;;;;;;4925526;29;20955;-60
2021/12/14 19:03:00;;;;;;;35.60;14.17;;;5.90;99.70;;;;;;4925435;29;20544;-62
2021/12/14 19:05:31;;;;;;;39.30;15.00;;;6.20;99.70;;;;;;4922673;29;20534;-64
2021/12/14 19:08:07;;;;;;;31.73;13.37;;;6.10;99.70;;;;;;4923855;29;20461;-60
2021/12/14 19:10:43;;;;;;;33.47;13.53;;;6.00;99.70;;;;;;4920236;29;20469;-61
2021/12/14 19:13:15;;;;;;;36.27;14.90;;;5.90;99.70;;;;;;4917347;29;20484;-61
2021/12/14 19:15:42;;;;;;;34.33;15.10;;;5.90;99.70;;;;;;4923648;29;20971;-60
2021/12/14 19:18:15;;;;;;;37.87;14.97;;;5.90;99.70;;;;;;4920406;29;20483;-64
2021/12/14 19:20:45;;;;;;;34.07;14.90;;;6.00;99.70;;;;;;4920659;29;20896;-60
2021/12/14 19:23:26;;;;;;;41.40;15.50;;;5.90;99.70;;;;;;4914476;29;20485;-61
2021/12/14 19:25:54;;;;;;;37.70;15.77;;;5.90;99.70;;;;;;4919353;29;20475;-60
2021/12/14 19:28:22;;;;;;;37.80;16.20;;;6.00;99.70;;;;;;4909511;29;20470;-59
2021/12/14 19:30:53;;;;;;;40.30;16.97;;;5.90;99.70;;;;;;4915792;29;20957;-60
2021/12/14 19:33:32;;;;;;;39.20;17.00;;;5.90;99.70;;;;;;4924347;29;20466;-62
2021/12/14 19:35:59;;;;;;;39.70;16.87;;;5.90;99.70;;;;;;4916644;29;20449;-62
2021/12/14 19:38:30;;;;;;;39.77;16.73;;;5.90;99.70;;;;;;4932534;29;20480;-60
2021/12/14 19:41:01;;;;;;;40.70;17.67;;;6.00;99.70;;;;;;4924852;29;20437;-60
2021/12/14 19:43:35;;;;;;;36.47;15.27;;;6.10;99.70;;;;;;4935066;29;20540;-60
2021/12/14 19:46:05;;;;;;;36.20;15.30;;;6.10;99.70;;;;;;4917793;29;20458;-63
2021/12/14 19:48:35;;;;;;;39.30;16.60;;;6.00;99.70;;;;;;4916838;29;20458;-64
2021/12/14 19:51:05;;;;;;;45.43;17.50;;;6.00;99.70;;;;;;4911292;29;20938;-62
2021/12/14 19:53:38;;;;;;;43.77;16.53;;;6.00;99.70;;;;;;4923634;29;20500;-67
2021/12/14 19:56:09;;;;;;;36.33;15.33;;;6.00;99.70;;;;;;4919585;29;20473;-63
2021/12/14 19:58:39;;;;;;;42.13;17.37;;;5.90;99.70;;;;;;4916202;29;20471;-63
2021/12/14 20:01:10;;;;;;;48.50;20.17;;;6.00;99.70;;;;;;4917434;29;20469;-64
2021/12/14 20:03:42;;;;;;;47.97;20.20;;;6.00;99.70;;;;;;4924764;29;20976;-61
2021/12/14 20:06:13;;;;;;;40.53;16.40;;;6.10;99.70;;;;;;4923217;29;20950;-63
2021/12/14 20:08:44;;;;;;;40.60;16.60;;;6.10;99.70;;;;;;4920763;29;20452;-63
2021/12/14 20:11:17;;;;;;;38.90;16.13;;;6.20;99.70;;;;;;4923557;29;20544;-63
2021/12/14 20:13:49;;;;;;;42.73;16.43;;;6.20;99.70;;;;;;4923037;29;20980;-63
2021/12/14 20:16:19;;;;;;;43.90;17.50;;;6.20;99.70;;;;;;4926144;29;20449;-61
2021/12/14 20:18:50;;;;;;;47.97;17.63;;;6.20;99.70;;;;;;4916339;29;20470;-63
2021/12/14 20:21:23;;;;;;;52.67;22.07;;;6.20;99.70;;;;;;4924669;29;20457;-60
2021/12/14 20:23:55;;;;;;;77.00;31.40;;;6.30;99.70;;;;;;4923437;29;21013;-62
2021/12/14 20:26:28;;;;;;;54.20;22.50;;;6.20;99.70;;;;;;4924019;29;20445;-59
2021/12/14 20:29:00;;;;;;;43.63;18.30;;;6.10;99.70;;;;;;4922569;29;20456;-62
2021/12/14 20:31:31;;;;;;;53.10;19.07;;;6.00;99.70;;;;;;4924996;29;21055;-59
2021/12/14 20:34:01;;;;;;;44.03;17.87;;;6.00;99.70;;;;;;4923544;29;20830;-60
2021/12/14 20:36:29;;;;;;;46.60;18.37;;;5.90;99.70;;;;;;4924967;29;20480;-57
2021/12/14 20:39:00;;;;;;;49.97;20.80;;;5.90;99.70;;;;;;4920812;29;20545;-63
2021/12/14 20:41:35;;;;;;;49.17;19.60;;;6.00;99.70;;;;;;4927965;29;20841;-64
2021/12/14 20:44:18;;;;;;;45.23;18.00;;;6.00;99.70;;;;;;4924592;29;20554;-64
2021/12/14 20:46:47;;;;;;;49.73;19.77;;;6.30;99.70;;;;;;4921568;29;20838;-62
2021/12/14 20:49:17;;;;;;;48.93;19.67;;;6.30;99.70;;;;;;4920458;29;20486;-60
2021/12/14 20:51:49;;;;;;;52.93;20.20;;;6.10;99.70;;;;;;4926543;29;20483;-60
2021/12/14 20:54:17;;;;;;;42.13;17.20;;;6.00;99.70;;;;;;4919715;29;20457;-60
2021/12/14 20:56:47;;;;;;;47.70;18.93;;;6.00;99.70;;;;;;4925796;29;20466;-59
2021/12/14 20:59:16;;;;;;;46.83;16.80;;;6.00;99.70;;;;;;4921014;29;20457;-63
2021/12/14 21:01:47;;;;;;;44.77;15.97;;;5.90;99.70;;;;;;4922069;29;20441;-60
2021/12/14 21:04:18;;;;;;;46.60;16.10;;;5.90;99.70;;;;;;4924970;29;20481;-61
2021/12/14 21:06:47;;;;;;;45.87;17.03;;;5.90;99.70;;;;;;4921815;29;20472;-63
2021/12/14 21:09:16;;;;;;;41.27;16.20;;;5.90;99.70;;;;;;4922139;29;20802;-61
2021/12/14 21:11:47;;;;;;;41.70;16.90;;;5.90;99.70;;;;;;4927015;29;20446;-64
2021/12/14 21:14:17;;;;;;;42.43;16.37;;;5.90;99.70;;;;;;4923185;29;20521;-64
2021/12/14 21:16:47;;;;;;;41.33;15.73;;;5.90;99.70;;;;;;4920992;29;20445;-64
2021/12/14 21:19:21;;;;;;;44.73;17.70;;;5.90;99.70;;;;;;4922179;29;20826;-63
2021/12/14 21:21:49;;;;;;;48.80;19.23;;;5.90;99.70;;;;;;4920256;29;20465;-63
2021/12/14 21:24:18;;;;;;;53.37;22.33;;;6.00;99.70;;;;;;4922486;29;20501;-65
2021/12/14 21:26:47;;;;;;;46.77;18.73;;;6.00;99.70;;;;;;4927870;29;20489;-65
2021/12/14 21:29:16;;;;;;;51.97;21.40;;;5.90;99.70;;;;;;4913069;29;20448;-66
2021/12/14 21:31:46;;;;;;;50.10;21.30;;;6.00;99.70;;;;;;4919611;29;20844;-66
2021/12/14 21:34:22;;;;;;;44.50;19.60;;;5.90;99.70;;;;;;4914384;29;20450;-65
2021/12/14 21:36:52;;;;;;;46.00;18.67;;;5.90;99.70;;;;;;4914478;29;20631;-66
2021/12/14 21:39:22;;;;;;;44.97;19.30;;;5.90;99.70;;;;;;4915094;29;20465;-62
2021/12/14 21:41:54;;;;;;;48.37;19.17;;;5.90;99.70;;;;;;4914416;29;20478;-64
2021/12/14 21:44:58;;;;;;;46.10;17.83;;;5.80;99.70;;;;;;4922261;29;20572;-65
2021/12/14 21:47:27;;;;;;;49.03;19.20;;;5.80;99.70;;;;;;4918956;29;20888;-63
2021/12/14 21:49:57;;;;;;;41.40;18.80;;;5.90;99.70;;;;;;4916171;29;20552;-65
2021/12/14 21:52:27;;;;;;;43.23;18.27;;;5.90;99.70;;;;;;4928238;29;20512;-64
2021/12/14 21:54:57;;;;;;;51.70;20.20;;;5.90;99.70;;;;;;4936603;29;20449;-65
2021/12/14 21:57:29;;;;;;;57.63;21.93;;;5.90;99.70;;;;;;4936261;29;20453;-65
2021/12/14 21:59:58;;;;;;;50.23;20.03;;;5.90;99.70;;;;;;4920247;29;20459;-65
2021/12/14 22:02:25;;;;;;;51.23;19.63;;;5.80;99.70;;;;;;4929860;29;20464;-65
2021/12/14 22:04:52;;;;;;;51.67;20.30;;;5.90;99.70;;;;;;4922350;29;20492;-64
2021/12/14 22:07:21;;;;;;;52.10;20.10;;;5.90;99.70;;;;;;4923207;29;20477;-64
2021/12/14 22:09:51;;;;;;;80.80;26.60;;;5.90;99.70;;;;;;4916360;29;20835;-65
2021/12/14 22:12:25;;;;;;;47.63;19.33;;;5.90;99.70;;;;;;4934308;29;20477;-65
2021/12/14 22:14:58;;;;;;;47.10;19.47;;;5.80;99.70;;;;;;4929833;29;20492;-64
2021/12/14 22:17:27;;;;;;;50.10;20.40;;;5.80;99.70;;;;;;4924011;29;20827;-64
2021/12/14 22:19:54;;;;;;;51.93;20.10;;;5.80;99.70;;;;;;4917820;29;20457;-65
2021/12/14 22:22:22;;;;;;;51.30;20.03;;;5.80;99.70;;;;;;4917442;29;20478;-64
2021/12/14 22:24:50;;;;;;;51.47;20.43;;;5.80;99.70;;;;;;4916294;29;20486;-65
2021/12/14 22:27:18;;;;;;;48.93;19.20;;;5.70;99.70;;;;;;4928682;29;20453;-61
2021/12/14 22:29:46;;;;;;;57.00;21.27;;;5.70;99.70;;;;;;4922240;29;20446;-63
2021/12/14 22:32:14;;;;;;;63.53;22.53;;;5.80;99.70;;;;;;4917229;29;20834;-61
2021/12/14 22:34:47;;;;;;;56.73;20.80;;;5.70;99.70;;;;;;4925378;29;20446;-62
2021/12/14 22:37:16;;;;;;;60.33;22.23;;;5.80;99.70;;;;;;4914274;29;20985;-61
2021/12/14 22:39:43;;;;;;;63.17;24.27;;;5.80;99.70;;;;;;4917153;29;20849;-60
2021/12/14 22:42:25;;;;;;;56.30;21.00;;;5.80;99.70;;;;;;4916166;29;20473;-61
2021/12/14 22:44:52;;;;;;;50.30;19.67;;;5.80;99.70;;;;;;4915118;29;20497;-60
2021/12/14 22:47:21;;;;;;;57.63;22.40;;;5.90;99.70;;;;;;4916420;29;20486;-63
2021/12/14 22:49:49;;;;;;;50.63;19.97;;;5.80;99.70;;;;;;4921594;29;20470;-64
2021/12/14 22:52:23;;;;;;;52.80;20.10;;;5.80;99.70;;;;;;4915372;29;20851;-60
2021/12/14 22:54:52;;;;;;;57.13;21.47;;;5.90;99.70;;;;;;4909551;29;20468;-60
2021/12/14 22:57:19;;;;;;;54.87;20.50;;;5.80;99.70;;;;;;4922052;29;20441;-59
2021/12/14 22:59:47;;;;;;;51.63;19.60;;;5.90;99.70;;;;;;4922052;29;20845;-61
2021/12/14 23:02:16;;;;;;;49.97;19.20;;;5.90;99.70;;;;;;4914910;29;20481;-61
2021/12/14 23:04:46;;;;;;;46.90;18.63;;;5.90;99.70;;;;;;4896812;29;20531;-59
2021/12/14 23:07:14;;;;;;;44.30;18.27;;;5.90;99.70;;;;;;4897545;29;20989;-61
2021/12/14 23:09:47;;;;;;;41.00;16.00;;;6.00;99.70;;;;;;4897817;29;20454;-58
2021/12/14 23:12:20;;;;;;;44.93;17.93;;;5.90;99.70;;;;;;4897879;29;20478;-61
2021/12/14 23:14:49;;;;;;;48.33;18.00;;;5.90;99.70;;;;;;4897473;29;20827;-60
2021/12/14 23:17:18;;;;;;;51.37;19.57;;;5.80;99.70;;;;;;4897656;29;20455;-59
2021/12/14 23:19:59;;;;;;;56.07;19.97;;;5.80;99.70;;;;;;4897988;29;20541;-60
2021/12/14 23:22:29;;;;;;;51.53;19.73;;;5.80;99.70;;;;;;4900826;29;20473;-60
2021/12/14 23:24:58;;;;;;;49.60;19.13;;;5.90;99.70;;;;;;4916063;29;20482;-59
2021/12/14 23:27:27;;;;;;;48.77;19.07;;;5.90;99.70;;;;;;4916448;29;20490;-57
2021/12/14 23:29:55;;;;;;;43.63;16.80;;;5.80;99.70;;;;;;4916605;29;20457;-58
